»·PEaware :: AAL1228 KSNA-KDEN

AAL1228 :: KSNA-KDEN

FLIGHT INFORMATION

Flight Status: Arrived
Operator:
American Airlines
More flights by this operator :: More flights under this callsign
Pilot: Michael M. (12217)
Aircraft: BOEING 767-300
(B763)
More flights by this aircraft type
Origin: KSNA John Wayne-Orange Co
United States
Destination: KDEN Denver Intl
United States
More flights between these airports :: More routes between these airports
Route: +PIGGN1 AVRRY EED TBC OURAY LDORA2
File this flight plan on PilotEdge
Remarks:
Altitude:
(Current/Filed)
33,000ft
Speed:
(Current/Filed)
300kts
Departed: 07-Aug-17 10:24 AM
Arrived: 07-Aug-17 12:17 PM
Distance/Time
Traveled:
734nm/1:53
Distance/Time
To Go:
Arrived

Flight Plot

Page will automatically refresh every two minutes.

Flight plan parsing failed; only flown route is shown


Map Options




Map Legend


Flown Route
Filed Route
Departure Airport
Arrival Airport
Navaid (VOR, NDB)
Fix

Horizontal Profiles

Position Reports

Time Latitude Longitude Heading Altitude Ground
Speed
07-Aug-17 10:13 33.676862 -117.864021 118 48ft 0kts
07-Aug-17 10:14 33.676862 -117.864021 118 48ft 0kts
07-Aug-17 10:15 33.676862 -117.864021 118 48ft 0kts
07-Aug-17 10:16 33.676862 -117.864021 118 48ft 0kts
07-Aug-17 10:17 33.676862 -117.864021 118 48ft 0kts
07-Aug-17 10:18 33.676862 -117.864021 118 48ft 0kts
07-Aug-17 10:19 33.676862 -117.864021 118 48ft 0kts
07-Aug-17 10:20 33.676862 -117.864021 118 48ft 0kts
07-Aug-17 10:21 33.676862 -117.864022 117 48ft 0kts
07-Aug-17 10:22 33.676891 -117.864484 28 49ft 0kts
07-Aug-17 10:23 33.679512 -117.862961 22 47ft 15kts
07-Aug-17 10:24 33.680504 -117.862956 305 47ft 0kts
07-Aug-17 10:25 33.680504 -117.862956 305 47ft 0kts
07-Aug-17 10:26 33.681329 -117.864729 280 47ft 9kts
07-Aug-17 10:27 33.661102 -117.878570 210 1115ft 157kts
07-Aug-17 10:28 33.607048 -117.894321 186 3215ft 240kts
07-Aug-17 10:29 33.541835 -117.880672 152 4926ft 254kts
07-Aug-17 10:30 33.491853 -117.816860 116 8858ft 282kts
07-Aug-17 10:31 33.479494 -117.720005 83 11731ft 344kts
07-Aug-17 10:32 33.523663 -117.608986 60 14998ft 391kts
07-Aug-17 10:33 33.576376 -117.491403 73 18405ft 414kts
07-Aug-17 10:34 33.580524 -117.352354 94 21512ft 432kts
07-Aug-17 10:35 33.582469 -117.219378 80 23957ft 457kts
07-Aug-17 10:36 33.613841 -117.069023 78 26374ft 479kts
07-Aug-17 10:37 33.626362 -116.909676 94 28623ft 489kts
07-Aug-17 10:38 33.622440 -116.744270 95 30778ft 503kts
07-Aug-17 10:39 33.617881 -116.576065 94 32925ft 509kts
07-Aug-17 10:40 33.613108 -116.407806 94 32867ft 501kts
07-Aug-17 10:41 33.608603 -116.241938 95 32867ft 501kts
07-Aug-17 10:42 33.605355 -116.074906 89 32863ft 504kts
07-Aug-17 10:43 33.639984 -115.927798 71 32878ft 510kts
07-Aug-17 10:44 33.679952 -115.800333 70 32875ft 510kts
07-Aug-17 10:45 33.729899 -115.641461 69 32876ft 510kts
07-Aug-17 10:46 33.813927 -115.505865 40 32884ft 511kts
07-Aug-17 10:47 33.919679 -115.392001 40 32886ft 511kts
07-Aug-17 10:48 34.023277 -115.280978 40 32946ft 512kts
07-Aug-17 10:49 34.127922 -115.168492 40 32916ft 511kts
07-Aug-17 10:50 34.233482 -115.054612 40 32931ft 510kts
07-Aug-17 10:51 34.338647 -114.940785 40 32935ft 509kts
07-Aug-17 10:52 34.443425 -114.827009 40 32937ft 509kts
07-Aug-17 10:53 34.548345 -114.712650 40 32938ft 509kts
07-Aug-17 10:54 34.632828 -114.620267 40 32939ft 509kts
07-Aug-17 10:55 34.737762 -114.504834 42 32938ft 509kts
07-Aug-17 10:56 34.815170 -114.361979 61 32947ft 511kts
07-Aug-17 10:57 34.880211 -114.215502 62 32941ft 511kts
07-Aug-17 10:58 34.947541 -114.062164 61 33057ft 516kts
07-Aug-17 10:59 35.015281 -113.907174 61 33122ft 522kts
07-Aug-17 11:00 35.076971 -113.765465 61 33124ft 523kts
07-Aug-17 11:01 35.142598 -113.614038 61 33121ft 523kts
07-Aug-17 11:02 35.210312 -113.457054 61 33123ft 523kts
07-Aug-17 11:03 35.276812 -113.302186 61 33113ft 523kts
07-Aug-17 11:04 35.344143 -113.144598 61 33220ft 523kts
07-Aug-17 11:05 35.411312 -112.986635 61 33358ft 523kts
07-Aug-17 11:06 35.477614 -112.829947 60 33348ft 520kts
07-Aug-17 11:07 35.543560 -112.673544 60 33350ft 519kts
07-Aug-17 11:08 35.609773 -112.515667 60 33348ft 519kts
07-Aug-17 11:09 35.675552 -112.358062 60 33346ft 519kts
07-Aug-17 11:10 35.740729 -112.201163 61 33337ft 520kts
07-Aug-17 11:11 35.806115 -112.042993 61 33339ft 520kts
07-Aug-17 11:12 35.871495 -111.884074 61 33340ft 520kts
07-Aug-17 11:13 35.928345 -111.745267 61 33342ft 520kts
07-Aug-17 11:14 35.993337 -111.585845 61 33344ft 520kts
07-Aug-17 11:15 36.057845 -111.426831 61 33313ft 520kts
07-Aug-17 11:16 36.117259 -111.279712 61 33201ft 519kts
07-Aug-17 11:17 36.190592 -111.126288 57 33163ft 519kts
07-Aug-17 11:18 36.264159 -110.973662 56 33164ft 516kts
07-Aug-17 11:19 36.337090 -110.821638 56 33165ft 514kts
07-Aug-17 11:20 36.409846 -110.669298 56 33168ft 514kts
07-Aug-17 11:21 36.482289 -110.516858 56 33169ft 514kts
07-Aug-17 11:22 36.554418 -110.364422 56 33180ft 514kts
07-Aug-17 11:23 36.625834 -110.212790 56 33283ft 514kts
07-Aug-17 11:24 36.697813 -110.059261 56 33337ft 514kts
07-Aug-17 11:25 36.769667 -109.905290 56 33339ft 514kts
07-Aug-17 11:26 36.840979 -109.751771 56 33341ft 514kts
07-Aug-17 11:27 36.912388 -109.597325 56 33343ft 514kts
07-Aug-17 11:28 36.983516 -109.442741 56 33344ft 514kts
07-Aug-17 11:29 37.053550 -109.289834 57 33317ft 518kts
07-Aug-17 11:30 37.123862 -109.135561 56 33324ft 520kts
07-Aug-17 11:31 37.195047 -108.978695 56 33285ft 517kts
07-Aug-17 11:32 37.265747 -108.822220 56 33278ft 517kts
07-Aug-17 11:33 37.332560 -108.673595 56 33279ft 517kts
07-Aug-17 11:34 37.402909 -108.516347 56 33281ft 517kts
07-Aug-17 11:35 37.472985 -108.358957 56 33294ft 517kts
07-Aug-17 11:36 37.540372 -108.206855 56 33389ft 517kts
07-Aug-17 11:37 37.609950 -108.049096 56 33474ft 517kts
07-Aug-17 11:38 37.679471 -107.890672 56 33476ft 516kts
07-Aug-17 11:39 37.748723 -107.732084 56 33478ft 517kts
07-Aug-17 11:40 37.817646 -107.573461 56 33480ft 516kts
07-Aug-17 11:41 37.886438 -107.414352 56 33472ft 517kts
07-Aug-17 11:42 37.953809 -107.257789 57 33461ft 517kts
07-Aug-17 11:43 38.013292 -107.118886 57 33414ft 517kts
07-Aug-17 11:44 38.081009 -106.959950 57 32988ft 511kts
07-Aug-17 11:45 38.146621 -106.805618 58 30357ft 517kts
07-Aug-17 11:46 38.213737 -106.646503 60 28245ft 506kts
07-Aug-17 11:47 38.300898 -106.512912 41 26285ft 487kts
07-Aug-17 11:48 38.396467 -106.394717 42 24484ft 472kts
07-Aug-17 11:49 38.487649 -106.281196 43 24462ft 474kts
07-Aug-17 11:50 38.581615 -106.163783 43 24456ft 473kts
07-Aug-17 11:51 38.675735 -106.045727 43 24445ft 477kts
07-Aug-17 11:52 38.770277 -105.926789 44 22718ft 476kts
07-Aug-17 11:53 38.863373 -105.809049 45 20499ft 467kts
07-Aug-17 11:54 38.953520 -105.694435 46 18775ft 445kts
07-Aug-17 11:55 39.037393 -105.587256 46 17712ft 410kts
07-Aug-17 11:56 39.107219 -105.497859 46 17012ft 328kts
07-Aug-17 11:57 39.171053 -105.415962 46 16691ft 331kts
07-Aug-17 11:58 39.234276 -105.334888 46 16242ft 318kts
07-Aug-17 11:59 39.270394 -105.234709 77 15921ft 312kts
07-Aug-17 12:00 39.291116 -105.126420 77 15206ft 309kts
07-Aug-17 12:01 39.311102 -105.019591 75 14501ft 306kts
07-Aug-17 12:02 39.331074 -104.912692 75 14024ft 308kts
07-Aug-17 12:03 39.351367 -104.804284 75 14015ft 310kts
07-Aug-17 12:04 39.371657 -104.695890 75 14019ft 311kts
07-Aug-17 12:05 39.391841 -104.588296 75 13963ft 304kts
07-Aug-17 12:06 39.443798 -104.513942 10 13945ft 297kts
07-Aug-17 12:07 39.528613 -104.517646 340 13988ft 352kts
07-Aug-17 12:08 39.618684 -104.562150 336 10901ft 330kts
07-Aug-17 12:09 39.663041 -104.654097 268 8039ft 323kts
07-Aug-17 12:10 39.658689 -104.762384 267 7974ft 280kts
07-Aug-17 12:11 39.621176 -104.827325 179 7936ft 237kts
07-Aug-17 12:12 39.592554 -104.777356 77 7966ft 196kts
07-Aug-17 12:13 39.604800 -104.708370 60 8027ft 195kts
07-Aug-17 12:14 39.642293 -104.664264 0 8022ft 194kts
07-Aug-17 12:15 39.692325 -104.662621 1 7965ft 157kts
07-Aug-17 12:16 39.734523 -104.661867 1 7230ft 150kts
07-Aug-17 12:17 39.776180 -104.661287 1 6480ft 149kts
07-Aug-17 12:18 39.817497 -104.660584 359 5692ft 147kts
07-Aug-17 12:19 39.844193 -104.660351 2 5445ft 56kts
07-Aug-17 12:20 39.849155 -104.661603 320 5445ft 2kts
07-Aug-17 12:21 39.852117 -104.662318 0 5445ft 15kts
07-Aug-17 12:22 39.853017 -104.666641 273 5445ft 12kts
07-Aug-17 12:23 39.852744 -104.670303 268 5445ft 11kts
07-Aug-17 12:24 39.853250 -104.671363 350 5445ft 0kts

Navigation Log

Ident Type
Flight plan parsing failed, navigation log unavailable